메인 페이지
METAR-TAF:

METAR-TAF

공항 :

알라마 이크발 국제공항

라호르, 파키스탄

위도: 31-31N, 경도: 074-24E, 고도: 216m

현재 날씨관측

예보는 35분 전, 01:55시(UTC)에 발표되었습니다.
동남동12kt
온도 25°C
습도 57%
기압 1006 hPa
시정: 5000m
고도 4000ft 상공 구름 보통
고도 10000ft 상공 구름 많음
연기

METAR: OPLA 300155Z 11012KT 5000 FU SCT040 BKN100 25/16 Q1006 TEMPO 32025G40KT 0800 DSTSRA FEW030CB RMK QFE980 RMK A29.73

시각: 07:30 (02:30 UTC)

예보

예보는 4 시간 45분 전, 21:45시(UTC)에 발표되었습니다.
예보 대상 시간: 30일 00시부터 31일 06시까지 (UTC)
남남동10kt
시정: 4000m
고도 4000ft 상공 구름 보통
고도 10000ft 상공 구름 보통
연기
일시적
30일 02시부터 30일 06시까지 (UTC)
북서20kt, 순간 최대 풍속 45kt
시정: 0800m
고도 3000ft 상공 구름 조금, 적란운.
고도 4000ft 상공 구름 보통
고도 10000ft 상공 흐림
일시적
30일 12시부터 30일 16시까지 (UTC)
북북서15kt, 순간 최대 풍속 40kt
시정: 1500m
고도 3000ft 상공 구름 조금, 적란운.
고도 4000ft 상공 구름 보통
고도 10000ft 상공 구름 많음
뇌우, 비

TAF: OPLA 292145Z 3000/3106 15010KT 4000 FU SCT040 SCT100 TX30/3010Z TN23/3000Z TEMPO 3002/3006 32020G45KT 0800 DSTSRA FEW030CB SCT040 OVC100 TEMPO 3012/3016 33015G40KT 1500 TSRA FEW030CB SCT040 BKN100

4,000개 이상의 공항 관측 자료 및 예보 (METAR 및 TAF 보고).

지도상에서 검색 가능한 기상관측소가 노란 점과 빨간 점으로 표시되어 있습니다.

기상관측소 명을 보려면 표시 위로 마우스를 이동하세요.

날씨 관측과 예보를 보려면 클릭하세요.

지도 변경 : 확대하려면 엑스 표시가 있는 녹색 버튼, 축소하려면 빼기 표시가 있는 녹색 버튼, 다음 페이지의 지도를 보려면 녹색 화살표를 클릭하세요.


METAR-TAF: